Time;durP1;ratioP1;P1;durP2;ratioP2;P2;SDS_P1;SDS_P2;PMS_P1;PMS_P2;Temp;Humidity;BMP_temperature;BMP_pressure;BME280_temperature;BME280_humidity;BME280_pressure;Samples;Min_cycle;Max_cycle;Signal;HPM_P1;HPM_P2
2023/08/02 00:02:09;;;;;;;11.60;3.93;;;15.60;99.90;;;;;;4986990;28;20488;-90
2023/08/02 00:04:36;;;;;;;10.33;3.53;;;15.50;99.90;;;;;;4986922;28;20464;-90
2023/08/02 00:07:03;;;;;;;5.90;3.97;;;15.50;99.90;;;;;;4977378;28;20529;-90
2023/08/02 00:09:30;;;;;;;7.07;3.73;;;15.50;99.90;;;;;;4993807;28;20457;-91
2023/08/02 00:11:57;;;;;;;5.30;3.97;;;15.60;99.90;;;;;;4992118;28;20445;-87
2023/08/02 00:14:25;;;;;;;7.50;3.80;;;15.50;99.90;;;;;;4980177;28;20443;-90
2023/08/02 00:16:52;;;;;;;9.50;4.27;;;15.60;99.90;;;;;;4993971;28;20546;-90
2023/08/02 00:19:19;;;;;;;7.23;3.87;;;15.60;99.90;;;;;;4989606;28;20502;-89
2023/08/02 00:21:45;;;;;;;6.60;4.20;;;15.70;99.90;;;;;;4974368;28;20463;-91
2023/08/02 00:24:12;;;;;;;8.00;4.00;;;15.70;99.90;;;;;;4974844;28;20482;-91
2023/08/02 00:26:39;;;;;;;5.53;3.80;;;15.70;99.90;;;;;;4990531;28;20429;-92
2023/08/02 00:29:05;;;;;;;7.10;3.50;;;15.60;99.90;;;;;;4994291;28;20449;-90
2023/08/02 00:31:33;;;;;;;6.90;4.20;;;15.60;99.90;;;;;;4988076;28;20476;-91
2023/08/02 00:34:00;;;;;;;10.17;4.27;;;15.50;99.90;;;;;;4977462;28;20467;-90
2023/08/02 00:36:27;;;;;;;8.60;4.90;;;15.50;99.90;;;;;;4993505;28;20940;-90
2023/08/02 00:38:53;;;;;;;7.47;4.13;;;15.50;99.90;;;;;;4977680;28;20509;-90
2023/08/02 00:41:20;;;;;;;7.73;4.43;;;15.50;99.90;;;;;;4993820;28;20426;-89
2023/08/02 00:43:47;;;;;;;8.60;4.33;;;15.40;99.90;;;;;;4985358;28;20444;-91
2023/08/02 00:46:16;;;;;;;14.40;4.53;;;15.40;99.90;;;;;;4986080;28;20438;-91
2023/08/02 00:48:46;;;;;;;6.80;3.67;;;15.40;99.90;;;;;;4990501;28;20443;-90
2023/08/02 00:51:15;;;;;;;9.70;4.47;;;15.40;99.90;;;;;;4979119;28;20425;-90
2023/08/02 00:53:42;;;;;;;8.73;4.03;;;15.30;99.90;;;;;;4994188;28;20440;-91
2023/08/02 00:56:10;;;;;;;16.67;4.93;;;15.30;99.90;;;;;;4993828;28;20453;-91
2023/08/02 00:58:36;;;;;;;13.73;4.50;;;15.30;99.90;;;;;;4993470;28;20461;-90
2023/08/02 01:01:07;;;;;;;12.13;4.30;;;15.30;99.90;;;;;;4993312;28;20979;-90
2023/08/02 01:03:35;;;;;;;7.77;4.40;;;15.30;99.90;;;;;;4993444;28;20537;-91
2023/08/02 01:06:09;;;;;;;6.83;4.03;;;15.40;99.90;;;;;;4990534;28;20878;-90
2023/08/02 01:08:40;;;;;;;12.60;4.20;;;15.30;99.90;;;;;;4993684;28;20445;-90
2023/08/02 01:11:14;;;;;;;11.30;4.73;;;15.30;99.90;;;;;;4985352;28;20834;-90
2023/08/02 01:13:48;;;;;;;10.13;4.57;;;15.30;99.90;;;;;;4993753;28;20862;-90
2023/08/02 01:16:16;;;;;;;13.70;5.20;;;15.30;99.90;;;;;;5003426;28;20511;-93
2023/08/02 01:18:43;;;;;;;7.07;4.27;;;15.20;99.90;;;;;;5017536;28;20518;-93
2023/08/02 01:21:11;;;;;;;16.50;4.30;;;15.30;99.90;;;;;;5009665;28;20513;-90
2023/08/02 01:23:38;;;;;;;13.80;4.57;;;15.30;99.90;;;;;;4993151;28;20514;-90
2023/08/02 01:26:05;;;;;;;13.97;3.90;;;15.20;99.90;;;;;;4993166;28;20433;-90
2023/08/02 01:28:38;;;;;;;9.30;4.20;;;15.30;99.90;;;;;;4985851;28;20871;-91
2023/08/02 01:31:05;;;;;;;16.20;4.10;;;15.20;99.90;;;;;;4979115;28;20863;-91
2023/08/02 01:33:36;;;;;;;12.60;4.70;;;15.30;99.90;;;;;;4993080;28;20488;-90
2023/08/02 01:36:04;;;;;;;6.40;4.57;;;15.30;99.90;;;;;;4982188;28;20452;-91
2023/08/02 01:38:32;;;;;;;16.13;4.90;;;15.30;99.90;;;;;;4987283;28;20993;-90
2023/08/02 01:40:59;;;;;;;10.53;4.60;;;15.30;99.90;;;;;;4984908;28;20434;-90
2023/08/02 01:43:25;;;;;;;10.00;4.80;;;15.30;99.90;;;;;;4988427;28;20461;-91
2023/08/02 01:45:52;;;;;;;6.23;4.50;;;15.30;99.90;;;;;;4981545;28;20441;-91
2023/08/02 01:48:19;;;;;;;7.87;4.20;;;15.30;99.90;;;;;;4992898;28;20508;-90
2023/08/02 01:50:45;;;;;;;11.70;4.80;;;15.30;99.90;;;;;;4973804;28;20482;-90
2023/08/02 01:53:12;;;;;;;7.40;4.23;;;15.30;99.90;;;;;;4984581;28;20422;-91
2023/08/02 01:55:40;;;;;;;12.40;4.60;;;15.30;99.90;;;;;;4992675;28;20429;-91
2023/08/02 01:58:07;;;;;;;11.43;5.20;;;15.30;99.90;;;;;;4992834;28;20527;-91
2023/08/02 02:00:33;;;;;;;13.97;4.37;;;15.30;99.90;;;;;;4992675;28;20481;-91
2023/08/02 02:03:00;;;;;;;8.03;4.60;;;15.40;99.90;;;;;;4992581;28;20429;-91
2023/08/02 02:05:27;;;;;;;11.53;4.90;;;15.30;99.90;;;;;;4992216;28;20433;-91
2023/08/02 02:07:53;;;;;;;10.80;4.57;;;15.50;99.90;;;;;;4981160;28;20467;-91
2023/08/02 02:10:20;;;;;;;6.23;4.33;;;15.30;99.90;;;;;;4992828;28;20927;-91
2023/08/02 02:12:48;;;;;;;10.23;5.10;;;15.30;99.90;;;;;;4992442;28;20667;-91
2023/08/02 02:15:15;;;;;;;15.87;5.03;;;15.30;99.90;;;;;;4992361;28;20793;-91
2023/08/02 02:17:43;;;;;;;16.03;5.73;;;15.20;99.90;;;;;;4992463;28;20987;-90
2023/08/02 02:20:12;;;;;;;12.10;5.03;;;15.20;99.90;;;;;;4984651;28;20816;-91
2023/08/02 02:22:39;;;;;;;13.00;5.90;;;15.20;99.90;;;;;;4992403;28;20527;-91
2023/08/02 02:25:06;;;;;;;12.43;5.00;;;15.10;99.90;;;;;;4982841;28;20438;-90
2023/08/02 02:27:33;;;;;;;12.30;5.20;;;15.10;99.90;;;;;;4983721;28;20431;-90
2023/08/02 02:30:01;;;;;;;8.63;5.17;;;15.10;99.90;;;;;;4993433;28;21073;-91
2023/08/02 02:32:28;;;;;;;16.03;5.23;;;15.10;99.90;;;;;;4982503;28;20969;-91
2023/08/02 02:34:55;;;;;;;8.10;5.03;;;15.10;99.90;;;;;;4988162;28;21007;-91
2023/08/02 02:37:21;;;;;;;10.23;5.10;;;15.10;99.90;;;;;;4996177;28;20560;-91
2023/08/02 02:39:48;;;;;;;12.60;5.83;;;15.10;99.90;;;;;;4987819;28;20440;-90
2023/08/02 02:42:15;;;;;;;15.90;5.70;;;15.10;99.90;;;;;;4979089;28;20459;-91
2023/08/02 02:44:42;;;;;;;10.73;5.70;;;15.10;99.90;;;;;;4995841;28;20455;-90
2023/08/02 02:47:10;;;;;;;7.70;5.10;;;15.10;99.90;;;;;;4977676;28;20460;-91
2023/08/02 02:49:37;;;;;;;11.80;5.13;;;15.10;99.90;;;;;;4976283;28;20550;-91
2023/08/02 02:52:05;;;;;;;21.50;6.07;;;15.20;99.90;;;;;;4985254;28;20950;-91
2023/08/02 02:54:31;;;;;;;15.60;5.07;;;15.20;99.90;;;;;;4990921;28;20427;-91
2023/08/02 02:56:58;;;;;;;10.37;4.90;;;15.20;99.90;;;;;;4984275;28;20454;-91
2023/08/02 02:59:25;;;;;;;18.17;5.70;;;15.20;99.90;;;;;;4994818;28;20457;-90
2023/08/02 03:01:51;;;;;;;8.07;4.57;;;15.20;99.90;;;;;;4995416;28;20430;-91
2023/08/02 03:04:19;;;;;;;6.80;4.63;;;15.20;99.90;;;;;;4984571;28;20456;-91
2023/08/02 03:06:46;;;;;;;11.90;4.27;;;15.20;99.90;;;;;;4979992;28;20805;-91
2023/08/02 03:09:13;;;;;;;9.50;4.20;;;15.20;99.90;;;;;;4978375;28;20450;-91
2023/08/02 03:11:39;;;;;;;7.60;4.17;;;15.20;99.90;;;;;;4995310;28;20434;-90
2023/08/02 03:14:06;;;;;;;9.53;4.10;;;15.20;99.90;;;;;;4987443;28;20476;-91
2023/08/02 03:16:33;;;;;;;11.30;4.27;;;15.20;99.90;;;;;;4995619;28;20809;-91
2023/08/02 03:18:59;;;;;;;13.77;4.87;;;15.20;99.90;;;;;;4995043;28;20490;-90
2023/08/02 03:21:27;;;;;;;13.60;4.70;;;15.20;99.90;;;;;;4995513;28;20425;-91
2023/08/02 03:23:54;;;;;;;9.37;4.40;;;15.20;99.90;;;;;;4994850;28;20493;-91
2023/08/02 03:26:21;;;;;;;8.53;4.90;;;15.20;99.90;;;;;;4992196;28;20448;-92
2023/08/02 03:28:48;;;;;;;10.83;5.17;;;15.20;99.90;;;;;;4977180;28;20442;-92
2023/08/02 03:31:14;;;;;;;6.57;4.30;;;15.20;99.90;;;;;;4992425;28;20926;-91
2023/08/02 03:33:41;;;;;;;14.17;5.10;;;15.20;99.90;;;;;;4995418;28;20429;-90
2023/08/02 03:36:08;;;;;;;14.53;4.73;;;15.30;99.90;;;;;;4995974;28;20990;-91
2023/08/02 03:38:36;;;;;;;11.73;5.50;;;15.20;99.90;;;;;;4980840;28;20969;-92
2023/08/02 03:41:03;;;;;;;11.50;4.07;;;15.20;99.90;;;;;;4983850;28;20454;-91
2023/08/02 03:43:30;;;;;;;9.83;4.90;;;15.10;99.90;;;;;;4988055;28;20422;-90
2023/08/02 03:45:57;;;;;;;13.43;4.63;;;15.10;99.90;;;;;;4995178;28;20462;-91
2023/08/02 03:48:25;;;;;;;12.73;4.93;;;15.20;99.90;;;;;;4991405;28;20856;-90
2023/08/02 03:50:51;;;;;;;18.30;5.60;;;15.00;99.90;;;;;;4990335;28;20430;-89
2023/08/02 03:53:18;;;;;;;19.50;5.73;;;15.10;99.90;;;;;;4994739;28;20463;-90
2023/08/02 03:55:46;;;;;;;5.90;4.50;;;15.20;99.90;;;;;;4995085;28;20434;-89
2023/08/02 03:58:13;;;;;;;10.97;5.23;;;15.00;99.90;;;;;;4992604;28;20915;-90
2023/08/02 04:00:39;;;;;;;11.10;4.77;;;15.00;99.90;;;;;;4980015;28;20425;-90
2023/08/02 04:03:06;;;;;;;11.00;5.23;;;15.00;99.90;;;;;;4994530;28;20432;-90
2023/08/02 04:05:33;;;;;;;8.73;5.30;;;14.90;99.90;;;;;;4990722;28;20796;-89
2023/08/02 04:08:00;;;;;;;11.10;5.03;;;14.90;99.90;;;;;;4974933;28;20571;-90
2023/08/02 04:10:26;;;;;;;11.20;5.63;;;14.90;99.90;;;;;;4974736;28;20500;-90
2023/08/02 04:12:54;;;;;;;6.67;4.97;;;14.90;99.90;;;;;;4982128;28;20422;-89
2023/08/02 04:15:21;;;;;;;11.53;5.30;;;15.00;99.90;;;;;;4986604;28;20530;-89
2023/08/02 04:17:49;;;;;;;9.03;5.20;;;15.00;99.90;;;;;;4994087;28;20482;-91
2023/08/02 04:20:15;;;;;;;12.17;5.30;;;15.00;99.90;;;;;;4994784;28;20427;-90
2023/08/02 04:22:42;;;;;;;13.53;4.70;;;15.00;99.90;;;;;;4995796;28;20434;-90
2023/08/02 04:25:09;;;;;;;12.83;5.13;;;15.00;99.90;;;;;;5010402;28;20449;-93
2023/08/02 04:27:36;;;;;;;9.80;5.33;;;15.00;99.90;;;;;;5018047;28;20457;-91
2023/08/02 04:30:05;;;;;;;11.10;4.57;;;15.00;99.90;;;;;;4986996;28;20841;-91
2023/08/02 04:32:31;;;;;;;7.97;4.83;;;15.00;99.90;;;;;;4974075;28;20463;-91
2023/08/02 04:34:58;;;;;;;10.47;5.00;;;15.00;99.90;;;;;;4990106;28;20470;-90
2023/08/02 04:37:25;;;;;;;8.83;5.17;;;15.00;99.90;;;;;;4990204;28;20928;-92
2023/08/02 04:39:51;;;;;;;4.97;4.30;;;15.00;99.90;;;;;;4980335;28;20534;-92
2023/08/02 04:42:18;;;;;;;9.10;4.83;;;15.00;99.90;;;;;;4991095;28;20514;-91
2023/08/02 04:44:45;;;;;;;17.63;5.23;;;15.00;99.90;;;;;;4987874;28;20436;-91
2023/08/02 04:47:13;;;;;;;13.13;5.00;;;15.10;99.90;;;;;;4993411;28;20912;-89
2023/08/02 04:49:40;;;;;;;9.40;5.93;;;15.10;99.90;;;;;;4993702;28;20471;-90
2023/08/02 04:52:06;;;;;;;15.37;5.50;;;15.10;99.90;;;;;;4992618;28;20461;-90
2023/08/02 04:54:33;;;;;;;8.93;5.50;;;15.00;99.90;;;;;;4992805;28;20451;-91
2023/08/02 04:57:00;;;;;;;10.00;5.30;;;15.10;99.90;;;;;;4985164;28;20455;-91
2023/08/02 04:59:27;;;;;;;16.03;5.10;;;15.10;99.90;;;;;;4990820;28;20517;-92
2023/08/02 05:01:53;;;;;;;10.93;5.07;;;15.20;99.90;;;;;;4981618;28;20453;-91
2023/08/02 05:04:22;;;;;;;8.30;4.80;;;15.20;99.90;;;;;;4991700;28;20488;-90
2023/08/02 05:06:48;;;;;;;11.00;5.03;;;15.30;99.90;;;;;;4981845;28;20463;-91
2023/08/02 05:09:15;;;;;;;8.50;4.47;;;15.30;99.90;;;;;;4982605;28;20505;-91
2023/08/02 05:11:42;;;;;;;8.43;4.93;;;15.30;99.90;;;;;;4979744;28;20431;-89
2023/08/02 05:14:08;;;;;;;9.63;4.50;;;15.30;99.90;;;;;;4989876;28;20418;-91
2023/08/02 05:16:36;;;;;;;7.43;4.70;;;15.30;99.90;;;;;;4992837;28;20452;-90
2023/08/02 05:19:03;;;;;;;8.40;4.80;;;15.40;99.90;;;;;;4992259;28;20983;-91
2023/08/02 05:21:31;;;;;;;8.33;4.23;;;15.40;99.90;;;;;;4984282;28;20542;-91
2023/08/02 05:23:58;;;;;;;7.97;4.77;;;15.40;99.90;;;;;;4992362;28;20463;-91
2023/08/02 05:26:25;;;;;;;10.43;4.27;;;15.40;99.90;;;;;;4992621;28;20430;-90
2023/08/02 05:28:51;;;;;;;8.20;4.67;;;15.40;99.90;;;;;;4989630;28;20531;-91
2023/08/02 05:31:18;;;;;;;11.27;5.20;;;15.30;99.90;;;;;;4993590;28;20619;-89
2023/08/02 05:33:45;;;;;;;11.90;5.50;;;15.40;99.90;;;;;;4985744;28;20474;-91
2023/08/02 05:36:14;;;;;;;10.53;5.00;;;15.40;99.90;;;;;;4992539;28;20451;-91
2023/08/02 05:38:43;;;;;;;9.87;4.80;;;15.30;99.90;;;;;;4992273;28;20475;-91
2023/08/02 05:41:09;;;;;;;9.17;4.53;;;15.40;99.90;;;;;;4992381;28;20437;-91
2023/08/02 05:43:36;;;;;;;6.70;4.80;;;15.30;99.90;;;;;;4980774;28;20434;-92
2023/08/02 05:46:03;;;;;;;6.73;5.13;;;15.30;99.90;;;;;;4988924;28;20525;-91
2023/08/02 05:48:30;;;;;;;8.50;4.47;;;15.30;99.90;;;;;;4981221;28;20472;-91
2023/08/02 05:50:56;;;;;;;6.90;5.10;;;15.30;99.90;;;;;;4990185;28;20430;-91
2023/08/02 05:53:23;;;;;;;10.33;4.87;;;15.30;99.90;;;;;;4997374;28;20437;-93
2023/08/02 05:55:51;;;;;;;9.03;5.20;;;15.30;99.90;;;;;;4998168;28;20422;-92
2023/08/02 05:58:18;;;;;;;9.17;5.27;;;15.40;99.90;;;;;;4978683;28;20475;-91
2023/08/02 06:00:44;;;;;;;9.67;5.47;;;15.30;99.90;;;;;;4997041;28;20453;-91
2023/08/02 06:03:11;;;;;;;11.40;4.80;;;15.30;99.90;;;;;;4995981;28;21003;-91
2023/08/02 06:05:38;;;;;;;6.23;5.00;;;15.30;99.90;;;;;;4986457;28;20418;-90
2023/08/02 06:08:05;;;;;;;8.10;5.70;;;15.30;99.90;;;;;;4984704;28;20894;-91
2023/08/02 06:10:31;;;;;;;8.70;4.97;;;15.30;99.90;;;;;;4996406;28;20832;-90
2023/08/02 06:12:59;;;;;;;11.90;6.10;;;15.30;99.90;;;;;;4981371;28;20551;-92
2023/08/02 06:15:27;;;;;;;8.47;5.30;;;15.30;99.90;;;;;;4984716;28;20440;-91
2023/08/02 06:17:53;;;;;;;8.80;5.47;;;15.30;99.90;;;;;;4977249;28;20488;-90
2023/08/02 06:20:20;;;;;;;6.90;4.97;;;15.30;99.90;;;;;;4993770;28;20541;-91
2023/08/02 06:22:47;;;;;;;10.77;5.10;;;15.30;99.90;;;;;;4989597;28;20503;-91
2023/08/02 06:25:14;;;;;;;8.23;5.10;;;15.30;99.90;;;;;;4977573;28;20455;-91
2023/08/02 06:27:40;;;;;;;11.37;5.33;;;15.30;99.90;;;;;;4996607;28;20492;-91
2023/08/02 06:30:09;;;;;;;8.17;5.23;;;15.40;99.90;;;;;;4981388;28;20431;-91
2023/08/02 06:32:36;;;;;;;8.63;5.30;;;15.40;99.90;;;;;;4987929;28;20406;-91
2023/08/02 06:35:03;;;;;;;10.20;5.17;;;15.40;99.90;;;;;;4998041;28;20496;-91
2023/08/02 06:37:30;;;;;;;9.90;4.80;;;15.40;99.90;;;;;;4989082;28;20443;-90
2023/08/02 06:39:57;;;;;;;6.93;4.90;;;15.50;99.90;;;;;;4997067;28;20449;-91
2023/08/02 06:42:23;;;;;;;15.23;5.73;;;15.50;99.90;;;;;;4979412;28;20489;-91
2023/08/02 06:44:50;;;;;;;9.37;4.77;;;15.50;99.90;;;;;;4990420;28;20469;-92
2023/08/02 06:47:18;;;;;;;10.33;5.80;;;15.50;99.90;;;;;;4996139;28;20418;-91
2023/08/02 06:49:45;;;;;;;7.90;4.90;;;15.50;99.90;;;;;;4983381;28;20458;-91
2023/08/02 06:52:12;;;;;;;13.93;5.50;;;15.50;99.90;;;;;;4991959;28;20451;-90
2023/08/02 06:54:38;;;;;;;11.40;5.40;;;15.50;99.90;;;;;;4996299;28;20498;-89
2023/08/02 06:57:06;;;;;;;6.57;5.20;;;15.50;99.90;;;;;;4996693;28;20988;-91
2023/08/02 06:59:33;;;;;;;8.10;5.50;;;15.60;99.90;;;;;;4982924;28;20857;-90
2023/08/02 07:01:59;;;;;;;12.43;7.13;;;15.50;99.90;;;;;;4992337;28;20426;-89
2023/08/02 07:04:27;;;;;;;8.13;5.60;;;15.60;99.90;;;;;;4987868;28;20433;-90
2023/08/02 07:06:54;;;;;;;15.17;6.13;;;15.60;99.90;;;;;;4987306;28;20455;-90
2023/08/02 07:09:21;;;;;;;8.03;5.53;;;15.60;99.90;;;;;;4994192;28;21019;-90
2023/08/02 07:11:48;;;;;;;19.20;6.10;;;15.80;99.90;;;;;;4990437;28;20962;-89
2023/08/02 07:14:14;;;;;;;9.90;6.00;;;15.70;99.90;;;;;;4996734;28;20445;-91
2023/08/02 07:16:41;;;;;;;7.37;5.87;;;15.80;99.90;;;;;;4992852;28;20475;-90
2023/08/02 07:19:08;;;;;;;9.30;5.50;;;15.70;99.90;;;;;;4990820;28;20511;-90
2023/08/02 07:21:36;;;;;;;7.70;5.90;;;15.70;99.90;;;;;;4983740;28;20457;-90
2023/08/02 07:24:03;;;;;;;10.60;5.97;;;15.70;99.90;;;;;;4990093;28;20463;-90
2023/08/02 07:26:29;;;;;;;10.73;6.13;;;15.60;99.90;;;;;;4995309;28;20488;-89
2023/08/02 07:28:56;;;;;;;6.57;5.23;;;15.60;99.90;;;;;;5006301;28;20446;-92
2023/08/02 07:31:23;;;;;;;8.80;5.60;;;15.60;99.90;;;;;;5015012;28;20433;-93
2023/08/02 07:33:49;;;;;;;9.13;5.70;;;15.60;99.90;;;;;;5007353;28;20512;-90
2023/08/02 07:36:18;;;;;;;14.03;5.27;;;15.50;99.90;;;;;;4978677;28;20955;-90
2023/08/02 07:38:47;;;;;;;11.30;5.27;;;15.50;99.90;;;;;;4986522;28;21016;-90
2023/08/02 07:41:14;;;;;;;5.60;5.10;;;15.60;99.90;;;;;;4993995;28;20426;-91
2023/08/02 07:43:41;;;;;;;7.70;4.83;;;15.60;99.90;;;;;;4985944;28;20474;-90
2023/08/02 07:46:16;;;;;;;5.90;4.50;;;15.50;99.90;;;;;;4994410;28;20462;-90
2023/08/02 07:48:43;;;;;;;5.53;5.00;;;15.50;99.90;;;;;;4990405;28;20442;-90
2023/08/02 07:51:09;;;;;;;7.00;5.17;;;15.40;99.90;;;;;;4992712;28;20447;-91
2023/08/02 07:53:36;;;;;;;6.70;5.20;;;15.50;99.90;;;;;;4986962;28;20710;-90
2023/08/02 07:56:05;;;;;;;8.50;6.50;;;15.40;99.90;;;;;;4988032;28;20448;-90
2023/08/02 07:58:31;;;;;;;10.83;5.53;;;15.40;99.90;;;;;;4984596;28;20857;-90
2023/08/02 08:01:04;;;;;;;6.93;5.60;;;15.40;99.90;;;;;;4988092;28;20550;-89
2023/08/02 08:03:31;;;;;;;11.00;6.30;;;15.40;99.90;;;;;;4984782;28;20459;-89
2023/08/02 08:05:57;;;;;;;6.73;5.43;;;15.40;99.90;;;;;;4982891;28;20427;-90
2023/08/02 08:08:24;;;;;;;7.80;6.00;;;15.50;99.90;;;;;;4982551;28;20530;-90
2023/08/02 08:10:54;;;;;;;6.43;4.73;;;15.50;99.90;;;;;;4982324;28;20458;-90
2023/08/02 08:13:22;;;;;;;6.80;4.77;;;15.50;99.90;;;;;;4983395;28;20511;-90
2023/08/02 08:15:49;;;;;;;9.47;4.83;;;15.60;99.90;;;;;;4990278;28;20493;-90
2023/08/02 08:18:15;;;;;;;7.40;4.13;;;15.60;99.90;;;;;;4981768;28;20512;-90
2023/08/02 08:20:42;;;;;;;4.83;4.40;;;15.60;99.90;;;;;;4989981;28;20491;-91
2023/08/02 08:23:09;;;;;;;5.03;4.20;;;15.70;99.90;;;;;;4980515;28;20426;-89
2023/08/02 08:25:35;;;;;;;5.70;4.00;;;15.70;99.90;;;;;;4985181;28;20430;-91
2023/08/02 08:28:02;;;;;;;8.80;4.40;;;15.80;99.90;;;;;;4993687;28;20482;-90
2023/08/02 08:30:30;;;;;;;5.20;4.70;;;15.80;99.90;;;;;;4991659;28;20452;-89
2023/08/02 08:32:57;;;;;;;6.10;4.03;;;15.80;99.90;;;;;;4993869;28;20501;-91
2023/08/02 08:35:23;;;;;;;7.27;4.23;;;15.80;99.90;;;;;;4993922;28;20449;-90
2023/08/02 08:37:52;;;;;;;4.67;3.90;;;15.80;99.90;;;;;;4993618;28;20438;-91
2023/08/02 08:40:20;;;;;;;3.87;3.57;;;15.80;99.90;;;;;;4992598;28;20483;-91
2023/08/02 08:42:50;;;;;;;5.07;4.07;;;15.90;99.90;;;;;;4992897;28;20440;-90
2023/08/02 08:45:20;;;;;;;4.07;3.67;;;15.90;99.90;;;;;;4985791;28;20530;-90
2023/08/02 08:47:49;;;;;;;3.97;3.67;;;15.90;99.90;;;;;;4993338;28;20446;-90
2023/08/02 08:50:16;;;;;;;3.00;2.80;;;15.90;99.90;;;;;;4985228;28;20459;-90
2023/08/02 08:52:47;;;;;;;3.70;3.40;;;15.90;99.90;;;;;;4976628;28;20451;-90
2023/08/02 08:55:15;;;;;;;5.20;3.40;;;15.90;99.90;;;;;;4978697;28;20518;-90
2023/08/02 08:57:42;;;;;;;3.30;3.10;;;15.90;99.90;;;;;;4991707;28;20546;-91
2023/08/02 09:00:10;;;;;;;3.53;3.23;;;16.00;99.90;;;;;;4982722;28;20495;-91
2023/08/02 09:02:39;;;;;;;2.97;2.77;;;16.00;99.90;;;;;;4984265;28;20546;-89
2023/08/02 09:05:08;;;;;;;4.03;3.17;;;16.10;99.90;;;;;;4993802;28;20486;-89
2023/08/02 09:07:35;;;;;;;3.30;3.10;;;16.10;99.90;;;;;;4976724;28;20939;-89
2023/08/02 09:10:02;;;;;;;3.27;3.00;;;16.10;99.90;;;;;;4992766;28;20447;-89
2023/08/02 09:12:28;;;;;;;6.37;3.40;;;16.10;99.90;;;;;;4994701;28;20733;-87
2023/08/02 09:15:04;;;;;;;3.07;2.87;;;16.10;99.90;;;;;;4996455;28;20499;-89
2023/08/02 09:17:45;;;;;;;3.40;3.20;;;16.10;99.90;;;;;;4993063;28;20483;-88
2023/08/02 09:20:15;;;;;;;3.53;2.90;;;16.00;99.90;;;;;;4979457;28;20509;-90
2023/08/02 09:22:41;;;;;;;5.10;3.30;;;16.10;99.90;;;;;;4993503;28;20936;-90
2023/08/02 09:25:19;;;;;;;2.70;2.50;;;16.10;99.90;;;;;;4994827;28;20434;-90
2023/08/02 09:27:47;;;;;;;3.10;2.53;;;16.00;99.90;;;;;;4994281;28;20472;-90
2023/08/02 09:30:23;;;;;;;2.83;2.63;;;16.10;99.90;;;;;;4985338;28;20681;-88
2023/08/02 09:32:59;;;;;;;3.10;2.47;;;16.00;99.90;;;;;;4977565;28;20417;-90
2023/08/02 09:35:27;;;;;;;3.50;2.90;;;16.00;99.90;;;;;;4986072;28;20485;-89
2023/08/02 09:37:54;;;;;;;4.57;2.87;;;16.10;99.90;;;;;;4986001;28;20551;-89
2023/08/02 09:40:33;;;;;;;3.40;3.13;;;16.10;99.90;;;;;;4993824;28;20537;-89
2023/08/02 09:43:01;;;;;;;2.47;2.30;;;16.10;99.90;;;;;;4997716;28;20505;-89
2023/08/02 09:45:32;;;;;;;3.03;2.83;;;16.20;99.90;;;;;;4990197;28;20970;-88
2023/08/02 09:47:59;;;;;;;2.47;2.27;;;16.30;99.90;;;;;;4989993;28;20430;-89
2023/08/02 09:50:27;;;;;;;2.40;2.20;;;16.20;99.90;;;;;;4990105;28;20414;-87
2023/08/02 09:52:55;;;;;;;2.50;2.30;;;16.20;99.90;;;;;;4999261;28;20458;-89
2023/08/02 09:55:22;;;;;;;4.73;3.07;;;16.30;99.90;;;;;;4999162;28;20500;-89
2023/08/02 09:57:50;;;;;;;2.30;2.20;;;16.30;99.90;;;;;;4997463;28;20459;-89
2023/08/02 10:00:18;;;;;;;3.33;3.00;;;16.30;99.90;;;;;;4982803;28;20887;-90
2023/08/02 10:02:47;;;;;;;2.93;2.73;;;16.30;99.90;;;;;;4998248;28;20447;-89
2023/08/02 10:05:14;;;;;;;2.40;2.30;;;16.30;99.90;;;;;;4991038;28;20431;-90
2023/08/02 10:07:46;;;;;;;2.90;2.70;;;16.40;99.90;;;;;;4985828;28;20431;-88
2023/08/02 10:10:18;;;;;;;3.23;2.67;;;16.40;99.90;;;;;;4991544;28;20514;-89
2023/08/02 10:12:49;;;;;;;2.67;2.47;;;16.40;99.90;;;;;;4994376;28;20530;-89
2023/08/02 10:15:15;;;;;;;2.27;2.17;;;16.50;99.90;;;;;;4991535;28;20868;-89
2023/08/02 10:17:43;;;;;;;2.43;2.23;;;16.50;99.90;;;;;;4999178;28;20447;-89
2023/08/02 10:20:12;;;;;;;2.17;2.00;;;16.50;99.90;;;;;;4988295;28;20491;-88
2023/08/02 10:22:43;;;;;;;2.50;2.40;;;16.50;99.90;;;;;;4986358;28;20450;-89
2023/08/02 10:25:10;;;;;;;2.30;2.10;;;16.50;99.90;;;;;;4984969;28;20540;-89
2023/08/02 10:27:38;;;;;;;2.90;2.70;;;16.40;99.90;;;;;;4985028;28;20453;-87
2023/08/02 10:30:06;;;;;;;2.43;2.23;;;16.50;99.90;;;;;;4989493;28;20447;-90
2023/08/02 10:32:32;;;;;;;2.50;2.30;;;16.50;99.90;;;;;;4987461;28;20481;-90
2023/08/02 10:35:00;;;;;;;2.30;2.20;;;16.50;99.90;;;;;;5020334;28;20443;-90
2023/08/02 10:37:54;;;;;;;4.83;2.30;;;16.50;99.90;;;;;;5014668;28;20466;-89
2023/08/02 10:40:22;;;;;;;2.70;2.50;;;16.60;99.90;;;;;;4982634;28;20526;-89
2023/08/02 10:43:05;;;;;;;2.23;2.13;;;16.60;99.90;;;;;;4995244;28;20865;-87
2023/08/02 10:45:32;;;;;;;2.77;2.57;;;16.60;99.90;;;;;;4996560;28;20459;-89
2023/08/02 10:48:23;;;;;;;2.83;2.57;;;16.60;99.90;;;;;;4995992;28;20508;-89
2023/08/02 10:50:50;;;;;;;2.90;2.70;;;16.70;99.90;;;;;;4994770;28;20445;-89
2023/08/02 10:53:18;;;;;;;2.80;2.60;;;16.70;99.90;;;;;;4996098;28;20506;-90
2023/08/02 10:56:05;;;;;;;2.53;2.40;;;16.70;99.90;;;;;;4986076;28;20503;-88
2023/08/02 10:58:48;;;;;;;3.30;2.70;;;16.70;99.90;;;;;;4976117;28;20478;-89
2023/08/02 11:01:15;;;;;;;2.60;2.40;;;16.70;99.90;;;;;;4994776;28;20462;-89
2023/08/02 11:03:43;;;;;;;2.90;2.70;;;16.70;99.90;;;;;;4979113;28;20448;-89
2023/08/02 11:06:24;;;;;;;3.07;2.83;;;16.80;99.90;;;;;;4986829;28;20448;-88
2023/08/02 11:08:52;;;;;;;2.70;2.50;;;16.80;99.90;;;;;;4984564;28;20482;-89
2023/08/02 11:11:31;;;;;;;2.90;2.70;;;16.80;99.90;;;;;;4990162;28;20487;-88
2023/08/02 11:13:58;;;;;;;2.57;2.47;;;16.80;99.90;;;;;;4979610;28;20455;-88
2023/08/02 11:16:25;;;;;;;4.40;2.50;;;16.80;99.90;;;;;;4988564;28;20452;-89
2023/08/02 11:18:51;;;;;;;2.37;2.17;;;16.80;99.90;;;;;;4986567;28;20450;-89
2023/08/02 11:21:18;;;;;;;2.73;2.57;;;16.90;99.90;;;;;;4995334;28;20486;-89
2023/08/02 11:23:49;;;;;;;2.63;2.43;;;16.90;99.90;;;;;;4985738;28;20514;-89
2023/08/02 11:26:18;;;;;;;2.50;2.30;;;16.90;99.90;;;;;;4989706;28;20784;-89
2023/08/02 11:28:48;;;;;;;2.53;2.33;;;17.00;99.90;;;;;;4995577;28;20548;-89
2023/08/02 11:31:15;;;;;;;2.60;2.30;;;17.00;99.90;;;;;;4994902;28;21043;-89
2023/08/02 11:33:42;;;;;;;2.57;2.40;;;17.00;99.90;;;;;;4994780;28;20425;-89
2023/08/02 11:36:09;;;;;;;2.07;1.97;;;17.10;99.90;;;;;;4994031;28;20493;-89
2023/08/02 11:38:37;;;;;;;2.23;2.03;;;17.10;99.90;;;;;;4994139;28;20482;-88
2023/08/02 11:41:14;;;;;;;2.30;1.80;;;17.20;99.90;;;;;;4995002;28;20581;-89
2023/08/02 11:43:42;;;;;;;1.87;1.77;;;17.30;99.90;;;;;;4995305;28;20506;-89
2023/08/02 11:46:16;;;;;;;2.70;1.80;;;17.30;99.90;;;;;;4994820;28;20451;-87
2023/08/02 11:48:43;;;;;;;2.07;1.87;;;17.30;99.90;;;;;;4991101;28;20998;-87
2023/08/02 11:51:10;;;;;;;1.60;1.50;;;17.40;99.90;;;;;;4989054;28;20447;-86
2023/08/02 11:53:54;;;;;;;5.73;1.70;;;17.40;99.90;;;;;;4996313;28;20482;-88
2023/08/02 11:56:22;;;;;;;1.80;1.70;;;17.40;99.90;;;;;;4982328;28;20800;-89
2023/08/02 11:58:51;;;;;;;1.60;1.50;;;17.50;99.90;;;;;;4985852;28;20439;-89
2023/08/02 12:01:19;;;;;;;1.40;1.30;;;17.60;99.90;;;;;;4989539;28;20967;-88
2023/08/02 12:03:56;;;;;;;1.67;1.50;;;17.70;99.90;;;;;;4995824;28;20455;-88
2023/08/02 12:06:23;;;;;;;4.47;1.40;;;17.70;99.90;;;;;;4987595;28;20465;-89
2023/08/02 12:08:54;;;;;;;1.63;1.30;;;17.90;99.90;;;;;;4995521;28;21060;-88
2023/08/02 12:11:21;;;;;;;1.40;1.30;;;18.00;99.90;;;;;;4995377;28;20444;-89
2023/08/02 12:13:50;;;;;;;2.33;1.27;;;18.00;99.90;;;;;;4995433;28;20463;-88
2023/08/02 12:16:16;;;;;;;1.40;1.30;;;18.10;99.90;;;;;;4995546;28;20454;-89
2023/08/02 12:18:51;;;;;;;2.30;1.10;;;18.20;99.90;;;;;;4994747;28;20481;-89
2023/08/02 12:21:18;;;;;;;1.40;1.30;;;18.60;99.90;;;;;;4995671;28;20475;-88
2023/08/02 12:23:45;;;;;;;1.40;1.30;;;18.70;99.90;;;;;;4994928;28;20466;-88
2023/08/02 12:26:11;;;;;;;1.40;1.30;;;19.00;99.90;;;;;;4995226;28;20458;-87
2023/08/02 12:28:45;;;;;;;1.17;1.07;;;19.10;99.90;;;;;;4986790;28;21056;-88
2023/08/02 12:31:14;;;;;;;1.80;1.53;;;19.10;99.90;;;;;;4982381;28;20968;-88
2023/08/02 12:33:41;;;;;;;1.50;1.40;;;19.10;99.90;;;;;;4994083;28;21015;-88
2023/08/02 12:36:09;;;;;;;1.40;1.13;;;19.00;99.90;;;;;;4994338;28;20512;-88
2023/08/02 12:38:36;;;;;;;1.30;1.20;;;19.00;99.90;;;;;;4993894;28;21000;-88
2023/08/02 12:41:03;;;;;;;2.30;1.30;;;19.00;99.90;;;;;;4977573;28;20478;-88
2023/08/02 12:43:30;;;;;;;3.13;1.00;;;19.10;99.90;;;;;;4993555;28;20484;-89
2023/08/02 12:45:56;;;;;;;1.00;0.90;;;19.10;99.90;;;;;;4993911;28;20454;-88
2023/08/02 12:48:24;;;;;;;1.10;1.00;;;19.20;99.90;;;;;;4993713;28;20553;-88